createdAt,value
2022-08-07T00:01:44.370Z,15.10
2022-08-07T00:04:05.938Z,15.10
2022-08-07T00:06:33.902Z,15.10
2022-08-07T00:09:16.396Z,15.00
2022-08-07T00:11:56.069Z,15.00
2022-08-07T00:14:29.986Z,15.00
2022-08-07T00:17:02.528Z,15.00
2022-08-07T00:19:59.605Z,14.90
2022-08-07T00:22:24.441Z,14.90
2022-08-07T00:25:11.077Z,14.90
2022-08-07T00:27:53.345Z,14.90
2022-08-07T00:30:27.451Z,14.90
2022-08-07T00:33:02.093Z,14.90
2022-08-07T00:35:30.427Z,14.90
2022-08-07T00:38:00.651Z,14.80
2022-08-07T00:40:36.584Z,14.80
2022-08-07T00:44:01.535Z,14.80
2022-08-07T00:45:59.753Z,14.80
2022-08-07T00:48:31.941Z,14.80
2022-08-07T00:51:00.932Z,14.70
2022-08-07T00:53:38.349Z,14.70
2022-08-07T00:56:14.104Z,14.70
2022-08-07T00:58:46.893Z,14.70
2022-08-07T01:01:15.296Z,14.70
2022-08-07T01:03:56.480Z,14.70
2022-08-07T01:06:30.418Z,14.60
2022-08-07T01:09:00.972Z,14.60
2022-08-07T01:12:26.519Z,14.60
2022-08-07T01:14:17.311Z,14.60
2022-08-07T01:16:48.490Z,14.50
2022-08-07T01:19:19.238Z,14.50
2022-08-07T01:21:53.369Z,14.40
2022-08-07T01:24:22.876Z,14.40
2022-08-07T01:26:52.756Z,14.40
2022-08-07T01:29:27.705Z,14.40
2022-08-07T01:31:55.778Z,14.40
2022-08-07T01:34:31.144Z,14.40
2022-08-07T01:36:58.784Z,14.30
2022-08-07T01:39:41.184Z,14.30
2022-08-07T01:42:38.653Z,14.30
2022-08-07T01:45:04.379Z,14.30
2022-08-07T01:48:20.176Z,14.30
2022-08-07T01:50:22.679Z,14.20
2022-08-07T01:52:58.491Z,14.30
2022-08-07T01:55:54.242Z,14.20
2022-08-07T01:58:27.538Z,14.20
2022-08-07T02:01:09.682Z,14.10
2022-08-07T02:04:11.527Z,14.10
2022-08-07T02:06:43.123Z,14.10
2022-08-07T02:09:51.785Z,14.10
2022-08-07T02:12:17.817Z,14.10
2022-08-07T02:14:53.009Z,14.10
2022-08-07T02:17:27.681Z,14.10
2022-08-07T02:20:05.551Z,14.10
2022-08-07T02:22:41.492Z,14.10
2022-08-07T02:25:17.295Z,14.10
2022-08-07T02:27:52.243Z,14.10
2022-08-07T02:30:20.385Z,14.00
2022-08-07T02:33:00.599Z,14.00
2022-08-07T02:36:28.563Z,14.00
2022-08-07T02:38:32.156Z,14.00
2022-08-07T02:41:01.208Z,13.90
2022-08-07T02:43:31.465Z,13.90
2022-08-07T02:46:01.847Z,14.00
2022-08-07T02:48:29.970Z,13.90
2022-08-07T02:50:59.228Z,13.90
2022-08-07T02:53:34.062Z,13.90
2022-08-07T02:56:17.506Z,13.90
2022-08-07T02:58:51.337Z,13.90
2022-08-07T03:01:36.337Z,13.90
2022-08-07T03:04:12.509Z,13.80
2022-08-07T03:06:42.036Z,13.80
2022-08-07T03:09:11.792Z,13.80
2022-08-07T03:11:51.789Z,13.70
2022-08-07T03:14:24.678Z,13.70
2022-08-07T03:16:52.389Z,13.70
2022-08-07T03:19:20.121Z,13.70
2022-08-07T03:21:50.948Z,13.70
2022-08-07T03:24:26.884Z,13.70
2022-08-07T03:26:58.248Z,13.70
2022-08-07T03:29:37.388Z,13.70
2022-08-07T03:32:06.760Z,13.70
2022-08-07T03:34:39.177Z,13.60
2022-08-07T03:37:12.399Z,13.60
2022-08-07T03:39:59.740Z,13.60
2022-08-07T03:42:27.588Z,13.60
2022-08-07T03:44:57.830Z,13.60
2022-08-07T03:47:26.000Z,13.50
2022-08-07T03:49:56.645Z,13.40
2022-08-07T03:52:26.996Z,13.40
2022-08-07T03:55:06.153Z,13.40
2022-08-07T03:58:33.395Z,13.40
2022-08-07T04:00:21.261Z,13.30
2022-08-07T04:02:58.922Z,13.40
2022-08-07T04:05:39.459Z,13.30
2022-08-07T04:08:12.868Z,13.30
2022-08-07T04:10:43.618Z,13.30
2022-08-07T04:13:22.084Z,13.40
2022-08-07T04:15:54.700Z,13.30
2022-08-07T04:18:56.709Z,13.30
2022-08-07T04:21:08.391Z,13.30
2022-08-07T04:23:43.600Z,13.30
2022-08-07T04:26:23.359Z,13.30
2022-08-07T04:28:55.253Z,13.30
2022-08-07T04:31:39.145Z,13.30
2022-08-07T04:34:16.852Z,13.30
2022-08-07T04:36:45.316Z,13.30
2022-08-07T04:39:12.268Z,13.30
2022-08-07T04:41:39.133Z,13.30
2022-08-07T04:44:11.890Z,13.30
2022-08-07T04:47:04.545Z,13.30
2022-08-07T04:49:40.741Z,13.40
2022-08-07T04:52:33.867Z,13.40
2022-08-07T04:55:15.623Z,13.40
2022-08-07T04:58:15.730Z,13.40
2022-08-07T05:00:57.433Z,13.50
2022-08-07T05:04:00.184Z,13.50
2022-08-07T05:06:22.831Z,13.50
2022-08-07T05:09:06.121Z,13.50
2022-08-07T05:11:57.658Z,13.50
2022-08-07T05:14:52.508Z,13.60
2022-08-07T05:17:52.900Z,13.60
2022-08-07T05:20:09.927Z,13.70
2022-08-07T05:22:38.193Z,13.70
2022-08-07T05:25:08.614Z,13.70
2022-08-07T05:28:03.411Z,13.70
2022-08-07T05:30:30.206Z,13.70
2022-08-07T05:33:02.548Z,13.70
2022-08-07T05:35:33.194Z,13.80
2022-08-07T05:38:08.789Z,13.80
2022-08-07T05:40:50.740Z,13.90
2022-08-07T05:43:19.299Z,13.90
2022-08-07T05:46:06.237Z,13.90
2022-08-07T05:48:34.038Z,14.00
2022-08-07T05:51:01.725Z,14.00
2022-08-07T05:54:12.940Z,14.00
2022-08-07T05:56:18.140Z,14.10
2022-08-07T05:58:49.310Z,14.10
2022-08-07T06:01:20.152Z,14.20
2022-08-07T06:03:56.328Z,14.20
2022-08-07T06:06:29.728Z,14.20
2022-08-07T06:08:59.497Z,14.40
2022-08-07T06:11:26.728Z,14.30
2022-08-07T06:14:12.652Z,14.40
2022-08-07T06:16:44.147Z,14.40
2022-08-07T06:19:18.248Z,14.50
2022-08-07T06:22:14.716Z,14.50
2022-08-07T06:24:56.973Z,14.60
2022-08-07T06:27:44.065Z,14.60
2022-08-07T06:30:24.089Z,14.70
2022-08-07T06:32:59.428Z,14.80
2022-08-07T06:35:38.887Z,14.80
2022-08-07T06:38:20.044Z,14.90
2022-08-07T06:40:50.056Z,15.00
2022-08-07T06:43:21.334Z,15.10
2022-08-07T06:45:49.410Z,15.20
2022-08-07T06:48:16.349Z,15.40
2022-08-07T06:50:52.996Z,15.70
2022-08-07T06:55:28.411Z,16.20
2022-08-07T06:56:15.582Z,16.60
2022-08-07T07:00:14.489Z,17.10
2022-08-07T07:01:33.322Z,17.40
2022-08-07T07:04:28.056Z,17.70
2022-08-07T07:07:01.262Z,18.00
2022-08-07T07:09:31.370Z,18.40
2022-08-07T07:12:16.688Z,18.70
2022-08-07T07:15:03.908Z,18.90
2022-08-07T07:17:50.649Z,19.20
2022-08-07T07:20:23.961Z,19.40
2022-08-07T07:24:10.062Z,19.50
2022-08-07T07:26:34.379Z,19.60
2022-08-07T07:29:23.517Z,19.70
2022-08-07T07:31:39.892Z,19.60
2022-08-07T07:34:13.104Z,19.60
2022-08-07T07:36:44.194Z,19.50
2022-08-07T07:39:16.105Z,19.70
2022-08-07T07:42:02.255Z,19.80
2022-08-07T07:44:34.936Z,20.00
2022-08-07T07:47:15.970Z,20.20
2022-08-07T07:50:32.841Z,20.30
2022-08-07T07:52:38.700Z,20.50
2022-08-07T07:55:07.721Z,20.80
2022-08-07T07:57:52.191Z,21.00
2022-08-07T08:00:31.437Z,21.10
2022-08-07T08:03:16.579Z,21.30
2022-08-07T08:05:58.624Z,21.40
2022-08-07T08:08:34.983Z,21.50
2022-08-07T08:11:08.497Z,21.70
2022-08-07T08:13:53.331Z,21.80
2022-08-07T08:16:50.294Z,21.80
2022-08-07T08:20:16.319Z,21.80
2022-08-07T08:22:32.618Z,21.90
2022-08-07T08:25:42.625Z,22.10
2022-08-07T08:28:09.568Z,22.00
2022-08-07T08:30:42.721Z,21.90
2022-08-07T08:33:21.975Z,21.80
2022-08-07T08:35:51.037Z,21.80
2022-08-07T08:38:20.622Z,21.90
2022-08-07T08:41:10.407Z,22.10
2022-08-07T08:43:59.677Z,22.10
2022-08-07T08:46:49.228Z,22.20
2022-08-07T08:49:33.514Z,22.30
2022-08-07T08:52:19.514Z,22.40
2022-08-07T08:54:59.180Z,22.30
2022-08-07T08:57:40.314Z,22.10
2022-08-07T09:00:08.506Z,22.10
2022-08-07T09:02:52.602Z,22.10
2022-08-07T09:05:32.312Z,22.00
2022-08-07T09:08:24.413Z,22.10
2022-08-07T09:11:14.104Z,22.10
2022-08-07T09:13:57.968Z,22.10
2022-08-07T09:16:30.662Z,21.90
2022-08-07T09:19:00.739Z,21.90
2022-08-07T09:22:09.553Z,21.90
2022-08-07T09:24:55.385Z,22.00
2022-08-07T09:27:59.627Z,22.00
2022-08-07T09:30:31.939Z,22.10
2022-08-07T09:33:05.239Z,22.10
2022-08-07T09:36:04.341Z,22.10
2022-08-07T09:38:49.930Z,22.10
2022-08-07T09:41:58.486Z,22.20
2022-08-07T09:47:27.512Z,22.10
2022-08-07T09:48:00.163Z,22.10
2022-08-07T09:50:39.988Z,22.20
2022-08-07T09:53:08.998Z,22.20
2022-08-07T09:56:03.510Z,22.30
2022-08-07T09:58:48.784Z,22.20
2022-08-07T10:01:51.354Z,22.00
2022-08-07T10:04:39.348Z,21.80
2022-08-07T10:07:31.762Z,21.60
2022-08-07T10:10:21.696Z,21.50
2022-08-07T10:13:15.758Z,21.50
2022-08-07T10:16:30.545Z,21.70
2022-08-07T10:18:58.264Z,21.90
2022-08-07T10:22:16.333Z,22.10
2022-08-07T10:24:49.517Z,22.30
2022-08-07T10:27:16.392Z,22.50
2022-08-07T10:29:53.273Z,22.40
2022-08-07T10:32:50.931Z,22.30
2022-08-07T10:35:53.472Z,22.10
2022-08-07T10:38:36.143Z,22.10
2022-08-07T10:41:11.915Z,22.00
2022-08-07T10:44:07.618Z,22.10
2022-08-07T10:46:50.103Z,22.40
2022-08-07T10:49:49.411Z,22.60
2022-08-07T10:52:51.432Z,22.60
2022-08-07T10:55:38.263Z,22.40
2022-08-07T10:58:13.615Z,22.50
2022-08-07T11:00:50.660Z,22.80
2022-08-07T11:03:37.693Z,23.00
2022-08-07T11:06:21.947Z,23.20
2022-08-07T11:08:52.584Z,23.40
2022-08-07T11:11:37.706Z,23.60
2022-08-07T11:14:46.080Z,23.60
2022-08-07T11:17:09.010Z,23.60
2022-08-07T11:19:40.130Z,23.70
2022-08-07T11:22:36.137Z,23.80
2022-08-07T11:25:16.796Z,23.90
2022-08-07T11:28:03.048Z,23.90
2022-08-07T11:30:41.711Z,24.10
2022-08-07T11:33:17.029Z,24.20
2022-08-07T11:35:59.116Z,24.40
2022-08-07T11:38:30.364Z,24.30
2022-08-07T11:41:03.262Z,24.50
2022-08-07T11:43:54.925Z,24.40
2022-08-07T11:46:43.358Z,24.30
2022-08-07T11:50:11.215Z,24.10
2022-08-07T11:52:16.317Z,24.10
2022-08-07T11:54:59.682Z,24.30
2022-08-07T11:58:00.820Z,24.50
2022-08-07T12:00:30.388Z,24.50
2022-08-07T12:02:58.518Z,24.50
2022-08-07T12:05:49.094Z,24.60
2022-08-07T12:08:40.297Z,24.80
2022-08-07T12:11:21.189Z,24.90
2022-08-07T12:13:49.179Z,25.20
2022-08-07T12:16:18.749Z,25.60
2022-08-07T12:19:21.827Z,25.90
2022-08-07T12:22:39.678Z,26.10
2022-08-07T12:26:05.778Z,26.30
2022-08-07T12:28:16.046Z,26.50
2022-08-07T12:30:53.512Z,26.70
2022-08-07T12:33:28.241Z,26.80
2022-08-07T12:35:58.966Z,26.80
2022-08-07T12:38:42.785Z,27.10
2022-08-07T12:41:14.619Z,27.40
2022-08-07T12:44:02.136Z,27.70
2022-08-07T12:46:32.747Z,27.70
2022-08-07T12:49:39.711Z,28.20
2022-08-07T12:52:18.201Z,28.60
2022-08-07T12:54:54.697Z,29.10
2022-08-07T12:57:39.050Z,29.50
2022-08-07T13:00:51.073Z,29.70
2022-08-07T13:04:00.673Z,29.90
2022-08-07T13:07:00.250Z,29.90
2022-08-07T13:10:21.395Z,29.80
2022-08-07T13:12:38.427Z,29.40
2022-08-07T13:15:29.600Z,28.70
2022-08-07T13:21:37.279Z,27.40
2022-08-07T13:24:29.372Z,26.70
2022-08-07T13:27:05.446Z,26.30
2022-08-07T13:29:42.464Z,26.00
2022-08-07T13:32:32.601Z,25.90
2022-08-07T13:35:24.212Z,26.30
2022-08-07T13:38:17.924Z,26.90
2022-08-07T13:41:02.958Z,27.60
2022-08-07T13:43:34.290Z,28.30
2022-08-07T13:46:21.768Z,28.80
2022-08-07T13:48:58.664Z,29.20
2022-08-07T13:52:05.454Z,29.80
2022-08-07T13:54:16.600Z,30.30
2022-08-07T13:56:55.875Z,30.70
2022-08-07T13:59:31.619Z,30.90
2022-08-07T14:02:07.852Z,31.10
2022-08-07T14:04:49.461Z,31.50
2022-08-07T14:07:18.790Z,31.60
2022-08-07T14:10:02.433Z,31.00
2022-08-07T14:15:34.795Z,31.50
2022-08-07T14:18:15.559Z,32.10
2022-08-07T14:20:54.686Z,32.40
2022-08-07T14:24:01.859Z,32.30
2022-08-07T14:26:32.557Z,32.60
2022-08-07T14:29:06.071Z,33.20
2022-08-07T14:31:42.805Z,33.40
2022-08-07T14:34:25.777Z,33.30
2022-08-07T14:36:56.639Z,33.10
2022-08-07T14:40:18.193Z,33.10
2022-08-07T14:42:18.659Z,33.20
2022-08-07T14:44:59.606Z,33.20
2022-08-07T14:47:33.970Z,33.20
2022-08-07T14:50:05.088Z,33.20
2022-08-07T14:52:34.053Z,33.30
2022-08-07T14:55:01.725Z,33.40
2022-08-07T14:57:57.851Z,33.60
2022-08-07T15:00:20.817Z,33.70
2022-08-07T15:03:15.701Z,34.10
2022-08-07T15:05:54.863Z,34.00
2022-08-07T15:11:52.854Z,33.10
2022-08-07T15:14:23.462Z,33.10
2022-08-07T15:17:13.463Z,33.30
2022-08-07T15:20:30.247Z,33.60
2022-08-07T15:22:51.634Z,33.70
2022-08-07T15:25:25.397Z,33.60
2022-08-07T15:28:36.399Z,33.40
2022-08-07T15:31:05.179Z,33.50
2022-08-07T15:33:36.169Z,33.50
2022-08-07T15:36:05.703Z,33.60
2022-08-07T15:38:58.675Z,33.70
2022-08-07T15:42:43.968Z,33.90
2022-08-07T15:44:13.138Z,33.60
2022-08-07T15:46:47.345Z,33.10
2022-08-07T15:49:25.380Z,32.40
2022-08-07T15:54:39.582Z,31.70
2022-08-07T15:57:39.603Z,30.90
2022-08-07T15:59:59.529Z,30.20
2022-08-07T16:02:45.779Z,29.50
2022-08-07T16:05:15.926Z,28.90
2022-08-07T16:08:32.012Z,28.30
2022-08-07T16:10:33.068Z,27.80
2022-08-07T16:13:57.806Z,27.30
2022-08-07T16:16:42.934Z,27.10
2022-08-07T16:19:14.666Z,26.80
2022-08-07T16:22:14.828Z,26.70
2022-08-07T16:25:02.624Z,26.40
2022-08-07T16:28:03.801Z,26.10
2022-08-07T16:30:34.290Z,25.90
2022-08-07T16:34:03.082Z,25.60
2022-08-07T16:36:19.795Z,25.40
2022-08-07T16:39:14.779Z,25.20
2022-08-07T16:42:03.276Z,24.90
2022-08-07T16:45:19.110Z,24.80
2022-08-07T16:47:56.959Z,24.70
2022-08-07T16:50:38.739Z,24.60
2022-08-07T16:54:02.798Z,24.60
2022-08-07T16:56:17.707Z,24.50
2022-08-07T16:59:14.825Z,24.30
2022-08-07T17:01:51.029Z,24.20
2022-08-07T17:04:57.799Z,24.10
2022-08-07T17:07:51.975Z,24.00
2022-08-07T17:10:32.499Z,23.90
2022-08-07T17:13:03.453Z,23.80
2022-08-07T17:15:44.170Z,23.70
2022-08-07T17:18:36.025Z,23.60
2022-08-07T17:21:19.189Z,23.50
2022-08-07T17:24:01.573Z,23.40
2022-08-07T17:26:36.824Z,23.30
2022-08-07T17:30:14.989Z,23.30
2022-08-07T17:32:30.147Z,23.30
2022-08-07T17:35:49.962Z,23.30
2022-08-07T17:38:05.567Z,23.10
2022-08-07T17:40:50.591Z,23.00
2022-08-07T17:43:22.594Z,22.90
2022-08-07T17:46:13.018Z,23.00
2022-08-07T17:48:45.079Z,22.90
2022-08-07T17:51:24.160Z,22.90
2022-08-07T17:54:39.649Z,22.80
2022-08-07T17:57:18.737Z,22.80
2022-08-07T17:59:52.477Z,22.70
2022-08-07T18:02:23.160Z,22.60
2022-08-07T18:04:56.297Z,22.60
2022-08-07T18:07:24.321Z,22.50
2022-08-07T18:10:31.970Z,22.40
2022-08-07T18:13:23.402Z,22.30
2022-08-07T18:16:04.908Z,22.30
2022-08-07T18:21:02.638Z,22.20
2022-08-07T18:21:53.473Z,22.20
2022-08-07T18:24:34.470Z,22.10
2022-08-07T18:27:18.115Z,22.10
2022-08-07T18:30:06.280Z,22.10
2022-08-07T18:32:54.837Z,22.10
2022-08-07T18:35:57.423Z,22.00
2022-08-07T18:38:55.561Z,21.90
2022-08-07T18:41:21.122Z,21.90
2022-08-07T18:43:57.610Z,21.80
2022-08-07T18:46:27.183Z,21.80
2022-08-07T18:50:30.515Z,21.80
2022-08-07T18:52:37.962Z,21.80
2022-08-07T18:55:43.192Z,21.70
2022-08-07T18:58:15.345Z,21.70
2022-08-07T19:00:59.499Z,21.60
2022-08-07T19:03:42.730Z,21.60
2022-08-07T19:06:16.409Z,21.50
2022-08-07T19:08:47.135Z,21.40
2022-08-07T19:11:35.887Z,21.40
2022-08-07T19:14:07.992Z,21.30
2022-08-07T19:17:06.094Z,21.20
2022-08-07T19:19:48.806Z,21.20
2022-08-07T19:22:30.698Z,21.10
2022-08-07T19:25:06.356Z,21.00
2022-08-07T19:28:58.189Z,20.90
2022-08-07T19:30:57.727Z,20.80
2022-08-07T19:33:15.281Z,20.80
2022-08-07T19:35:44.848Z,20.80
2022-08-07T19:38:17.122Z,20.70
2022-08-07T19:40:50.360Z,20.60
2022-08-07T19:43:43.783Z,20.60
2022-08-07T19:46:11.075Z,20.40
2022-08-07T19:48:42.914Z,20.40
2022-08-07T19:51:20.540Z,20.20
2022-08-07T19:54:34.717Z,20.20
2022-08-07T19:58:03.121Z,20.20
2022-08-07T19:59:42.553Z,20.10
2022-08-07T20:02:19.193Z,20.00
2022-08-07T20:04:49.329Z,19.90
2022-08-07T20:07:23.545Z,19.90
2022-08-07T20:10:37.661Z,19.80
2022-08-07T20:12:42.978Z,19.70
2022-08-07T20:15:19.014Z,19.70
2022-08-07T20:18:01.593Z,19.60
2022-08-07T20:20:33.882Z,19.60
2022-08-07T20:23:23.218Z,19.50
2022-08-07T20:25:54.055Z,19.50
2022-08-07T20:28:29.231Z,19.50
2022-08-07T20:30:58.184Z,19.40
2022-08-07T20:33:36.924Z,19.40
2022-08-07T20:36:06.764Z,19.30
2022-08-07T20:38:35.051Z,19.30
2022-08-07T20:41:03.782Z,19.20
2022-08-07T20:43:33.984Z,19.20
2022-08-07T20:46:25.666Z,19.10
2022-08-07T20:49:02.426Z,19.10
2022-08-07T20:51:40.273Z,19.00
2022-08-07T20:54:15.129Z,19.00
2022-08-07T20:56:58.165Z,19.00
2022-08-07T21:00:06.257Z,18.90
2022-08-07T21:02:39.199Z,18.90
2022-08-07T21:05:18.367Z,18.90
2022-08-07T21:08:07.927Z,18.90
2022-08-07T21:10:37.755Z,18.90
2022-08-07T21:13:07.471Z,18.80
2022-08-07T21:15:58.507Z,18.70
2022-08-07T21:18:29.475Z,18.70
2022-08-07T21:20:57.461Z,18.70
2022-08-07T21:23:50.580Z,18.70
2022-08-07T21:26:21.915Z,18.60
2022-08-07T21:29:00.534Z,18.50
2022-08-07T21:32:42.487Z,18.40
2022-08-07T21:34:31.631Z,18.40
2022-08-07T21:37:21.678Z,18.30
2022-08-07T21:40:20.619Z,18.30
2022-08-07T21:42:56.492Z,18.30
2022-08-07T21:46:09.225Z,18.30
2022-08-07T21:48:42.514Z,18.30
2022-08-07T21:51:20.286Z,18.30
2022-08-07T21:53:54.176Z,18.20
2022-08-07T21:56:39.694Z,18.20
2022-08-07T21:59:22.026Z,18.10
2022-08-07T22:02:11.023Z,18.20
2022-08-07T22:04:53.621Z,18.20
2022-08-07T22:07:23.032Z,18.20
2022-08-07T22:10:01.390Z,18.20
2022-08-07T22:12:37.024Z,18.20
2022-08-07T22:16:43.878Z,18.10
2022-08-07T22:18:04.151Z,18.10
2022-08-07T22:20:33.830Z,18.10
2022-08-07T22:23:23.960Z,18.00
2022-08-07T22:26:13.229Z,18.00
2022-08-07T22:28:48.252Z,18.00
2022-08-07T22:31:59.292Z,18.00
2022-08-07T22:34:31.670Z,17.90
2022-08-07T22:37:22.666Z,17.90
2022-08-07T22:39:58.961Z,17.80
2022-08-07T22:42:30.347Z,17.80
2022-08-07T22:45:01.961Z,17.80
2022-08-07T22:47:58.961Z,17.80
2022-08-07T22:50:29.017Z,17.70
2022-08-07T22:53:03.007Z,17.70
2022-08-07T22:55:49.966Z,17.70
2022-08-07T22:58:37.578Z,17.70
2022-08-07T23:01:24.803Z,17.70
2022-08-07T23:04:09.935Z,17.60
2022-08-07T23:06:52.080Z,17.60
2022-08-07T23:10:04.288Z,17.60
2022-08-07T23:12:11.432Z,17.60
2022-08-07T23:16:04.936Z,17.50
2022-08-07T23:18:15.546Z,17.50
2022-08-07T23:21:03.298Z,17.50
2022-08-07T23:24:05.207Z,17.40
2022-08-07T23:26:49.992Z,17.40
2022-08-07T23:29:43.848Z,17.40
2022-08-07T23:34:23.341Z,17.40
2022-08-07T23:35:24.108Z,17.30
2022-08-07T23:38:11.600Z,17.30
2022-08-07T23:41:04.718Z,17.20
2022-08-07T23:43:47.049Z,17.20
2022-08-07T23:46:27.438Z,17.20
2022-08-07T23:49:00.384Z,17.20
2022-08-07T23:53:01.714Z,17.10
2022-08-07T23:54:36.268Z,17.10
2022-08-07T23:57:19.745Z,17.10
